createdAt,value
2019-05-02T00:00:53.622Z,25.05
2019-05-02T00:03:24.454Z,24.77
2019-05-02T00:05:53.718Z,24.92
2019-05-02T00:08:23.441Z,22.80
2019-05-02T00:10:52.675Z,21.95
2019-05-02T00:13:21.855Z,19.67
2019-05-02T00:15:51.816Z,22.65
2019-05-02T00:18:22.220Z,21.48
2019-05-02T00:20:51.455Z,19.05
2019-05-02T00:23:23.031Z,20.20
2019-05-02T00:25:52.600Z,18.60
2019-05-02T00:28:21.979Z,18.80
2019-05-02T00:30:51.096Z,19.15
2019-05-02T00:33:20.135Z,18.80
2019-05-02T00:35:49.303Z,15.65
2019-05-02T00:38:18.498Z,14.93
2019-05-02T00:40:47.675Z,18.02
2019-05-02T00:43:16.707Z,16.42
2019-05-02T00:45:45.867Z,14.15
2019-05-02T00:48:29.583Z,16.20
2019-05-02T00:50:58.843Z,17.15
2019-05-02T00:53:27.886Z,15.13
2019-05-02T00:55:56.981Z,14.68
2019-05-02T00:58:27.175Z,15.50
2019-05-02T01:01:14.783Z,17.65
2019-05-02T01:03:47.243Z,14.95
2019-05-02T01:06:16.443Z,13.98
2019-05-02T01:08:45.456Z,12.43
2019-05-02T01:11:14.586Z,13.58
2019-05-02T01:13:43.696Z,14.43
2019-05-02T01:16:15.131Z,13.13
2019-05-02T01:18:43.527Z,18.27
2019-05-02T01:21:12.733Z,15.00
2019-05-02T01:23:41.748Z,13.90
2019-05-02T01:26:11.687Z,15.05
2019-05-02T01:29:11.819Z,14.25
2019-05-02T01:31:54.784Z,16.02
2019-05-02T01:34:43.696Z,14.83
2019-05-02T01:37:21.912Z,14.43
2019-05-02T01:39:51.154Z,14.93
2019-05-02T01:42:20.235Z,17.25
2019-05-02T01:44:49.259Z,14.65
2019-05-02T01:47:18.487Z,15.05
2019-05-02T01:49:52.097Z,15.83
2019-05-02T01:52:23.684Z,16.62
2019-05-02T01:54:50.416Z,16.42
2019-05-02T01:57:19.481Z,16.77
2019-05-02T01:59:48.489Z,15.48
2019-05-02T02:02:17.609Z,17.40
2019-05-02T02:04:52.036Z,20.40
2019-05-02T02:07:20.104Z,18.10
2019-05-02T02:09:48.047Z,16.45
2019-05-02T02:12:17.137Z,22.75
2019-05-02T02:14:48.174Z,16.23
2019-05-02T02:17:17.359Z,19.92
2019-05-02T02:19:51.772Z,21.12
2019-05-02T02:22:39.175Z,22.85
2019-05-02T02:25:32.197Z,21.37
2019-05-02T02:28:01.921Z,23.22
2019-05-02T02:30:30.984Z,26.52
2019-05-02T02:33:06.983Z,22.80
2019-05-02T02:35:30.866Z,23.98
2019-05-02T02:38:00.008Z,23.73
2019-05-02T02:40:33.507Z,26.87
2019-05-02T02:43:12.630Z,25.27
2019-05-02T02:45:51.739Z,27.93
2019-05-02T02:48:16.965Z,25.68
2019-05-02T02:50:46.020Z,29.67
2019-05-02T02:53:24.168Z,33.30
2019-05-02T02:56:01.209Z,26.52
2019-05-02T02:58:23.429Z,23.38
2019-05-02T03:00:52.460Z,27.10
2019-05-02T03:03:27.832Z,24.02
2019-05-02T03:05:52.356Z,26.68
2019-05-02T03:08:21.427Z,22.85
2019-05-02T03:10:50.476Z,26.75
2019-05-02T03:13:52.324Z,23.80
2019-05-02T03:16:16.205Z,25.90
2019-05-02T03:18:45.273Z,24.60
2019-05-02T03:21:20.835Z,25.35
2019-05-02T03:23:45.196Z,22.00
2019-05-02T03:26:15.412Z,24.18
2019-05-02T03:28:44.957Z,25.10
2019-05-02T03:31:24.165Z,24.57
2019-05-02T03:33:54.803Z,27.93
2019-05-02T03:36:29.238Z,23.62
2019-05-02T03:38:46.247Z,24.15
2019-05-02T03:41:20.585Z,23.38
2019-05-02T03:43:46.494Z,23.57
2019-05-02T03:46:20.804Z,22.82
2019-05-02T03:48:46.408Z,21.12
2019-05-02T03:51:21.491Z,23.05
2019-05-02T03:53:46.175Z,25.43
2019-05-02T03:56:15.257Z,25.12
2019-05-02T03:58:48.554Z,27.05
2019-05-02T04:01:15.496Z,22.20
2019-05-02T04:03:44.952Z,22.93
2019-05-02T04:06:21.128Z,23.77
2019-05-02T04:08:44.775Z,25.77
2019-05-02T04:11:22.053Z,24.92
2019-05-02T04:13:54.863Z,24.87
2019-05-02T04:16:27.647Z,24.45
2019-05-02T04:18:58.258Z,25.92
2019-05-02T04:21:27.522Z,29.85
2019-05-02T04:24:07.232Z,27.15
2019-05-02T04:26:28.353Z,24.75
2019-05-02T04:28:57.996Z,28.55
2019-05-02T04:31:31.381Z,30.17
2019-05-02T04:33:57.877Z,28.77
2019-05-02T04:36:26.937Z,26.73
2019-05-02T04:38:59.336Z,26.68
2019-05-02T04:41:28.986Z,27.87
2019-05-02T04:44:01.256Z,25.92
2019-05-02T04:46:31.224Z,28.92
2019-05-02T04:48:59.048Z,30.08
2019-05-02T04:51:31.751Z,26.33
2019-05-02T04:53:59.056Z,25.10
2019-05-02T04:56:28.522Z,27.00
2019-05-02T04:59:01.358Z,27.13
2019-05-02T05:01:33.083Z,27.00
2019-05-02T05:04:03.012Z,27.13
2019-05-02T05:06:29.921Z,27.60
2019-05-02T05:09:04.014Z,33.73
2019-05-02T05:11:29.794Z,31.05
2019-05-02T05:14:00.343Z,33.05
2019-05-02T05:16:29.694Z,34.20
2019-05-02T05:19:00.087Z,38.50
2019-05-02T05:21:30.054Z,35.05
2019-05-02T05:24:18.766Z,35.20
2019-05-02T05:26:51.417Z,35.63
2019-05-02T05:29:23.259Z,36.83
2019-05-02T05:31:55.102Z,38.40
2019-05-02T05:34:30.717Z,38.85
2019-05-02T05:36:58.196Z,33.20
2019-05-02T05:39:28.190Z,37.35
2019-05-02T05:41:58.000Z,39.40
2019-05-02T05:44:32.484Z,38.67
2019-05-02T05:46:59.510Z,40.70
2019-05-02T05:49:30.332Z,35.40
2019-05-02T05:52:03.706Z,37.33
2019-05-02T05:54:33.012Z,34.33
2019-05-02T05:57:04.285Z,34.20
2019-05-02T05:59:41.424Z,35.55
2019-05-02T06:02:14.749Z,32.55
2019-05-02T06:04:47.350Z,30.82
2019-05-02T06:07:20.065Z,33.63
2019-05-02T06:09:53.381Z,32.50
2019-05-02T06:12:26.134Z,28.40
2019-05-02T06:14:56.433Z,29.92
2019-05-02T06:17:28.466Z,29.50
2019-05-02T06:20:02.064Z,30.95
2019-05-02T06:22:32.703Z,29.42
2019-05-02T06:25:09.354Z,29.82
2019-05-02T06:27:39.450Z,33.00
2019-05-02T06:30:09.917Z,35.28
2019-05-02T06:32:40.095Z,26.07
2019-05-02T06:35:10.084Z,26.80
2019-05-02T06:37:40.760Z,33.15
2019-05-02T06:40:10.121Z,29.72
2019-05-02T06:42:39.243Z,29.52
2019-05-02T06:45:09.672Z,29.15
2019-05-02T06:47:41.651Z,29.57
2019-05-02T06:50:09.781Z,29.52
2019-05-02T06:52:38.871Z,26.15
2019-05-02T06:55:08.132Z,25.40
2019-05-02T06:57:37.331Z,31.40
2019-05-02T07:00:07.869Z,25.27
2019-05-02T07:02:37.372Z,29.45
2019-05-02T07:05:06.595Z,30.90
2019-05-02T07:07:37.127Z,26.42
2019-05-02T07:10:07.750Z,28.50
2019-05-02T07:12:38.698Z,29.35
2019-05-02T07:15:20.410Z,26.48
2019-05-02T07:17:51.837Z,28.60
2019-05-02T07:20:21.666Z,28.10
2019-05-02T07:22:51.971Z,29.12
2019-05-02T07:25:21.772Z,25.10
2019-05-02T07:27:51.499Z,24.80
2019-05-02T07:30:21.402Z,28.40
2019-05-02T07:32:51.242Z,25.95
2019-05-02T07:35:24.534Z,25.95
2019-05-02T07:37:51.687Z,23.85
2019-05-02T07:40:21.503Z,24.75
2019-05-02T07:42:51.267Z,24.45
2019-05-02T07:45:20.997Z,28.57
2019-05-02T07:47:52.784Z,22.58
2019-05-02T07:50:21.839Z,27.75
2019-05-02T07:52:50.890Z,25.23
2019-05-02T07:55:20.589Z,25.80
2019-05-02T07:57:50.704Z,27.52
2019-05-02T08:00:21.672Z,23.10
2019-05-02T08:02:51.484Z,23.95
2019-05-02T08:05:23.751Z,21.60
2019-05-02T08:07:55.030Z,21.82
2019-05-02T08:10:24.682Z,21.75
2019-05-02T08:12:54.480Z,24.10
2019-05-02T08:15:24.595Z,21.55
2019-05-02T08:17:55.235Z,23.12
2019-05-02T08:20:25.312Z,21.45
2019-05-02T08:22:55.067Z,22.62
2019-05-02T08:25:24.843Z,23.07
2019-05-02T08:28:16.044Z,24.98
2019-05-02T08:30:50.648Z,23.05
2019-05-02T08:33:20.389Z,22.48
2019-05-02T08:35:50.145Z,23.32
2019-05-02T08:38:19.934Z,22.13
2019-05-02T08:40:49.746Z,23.45
2019-05-02T08:43:19.654Z,18.20
2019-05-02T08:45:50.593Z,21.05
2019-05-02T08:48:22.686Z,19.23
2019-05-02T08:50:52.084Z,19.25
2019-05-02T08:53:22.265Z,16.90
2019-05-02T08:55:52.307Z,18.00
2019-05-02T08:58:22.075Z,18.07
2019-05-02T09:00:53.965Z,18.00
2019-05-02T09:03:25.403Z,17.82
2019-05-02T09:06:05.349Z,17.05
2019-05-02T09:08:30.395Z,17.98
2019-05-02T09:10:59.496Z,16.87
2019-05-02T09:13:33.004Z,18.20
2019-05-02T09:16:15.440Z,23.10
2019-05-02T09:18:53.813Z,18.02
2019-05-02T09:21:22.126Z,19.50
2019-05-02T09:23:51.751Z,19.95
2019-05-02T09:26:33.231Z,21.33
2019-05-02T09:28:56.210Z,16.73
2019-05-02T09:31:26.073Z,18.23
2019-05-02T09:33:55.670Z,18.87
2019-05-02T09:36:25.829Z,18.07
2019-05-02T09:38:57.537Z,20.60
2019-05-02T09:41:26.829Z,19.50
2019-05-02T09:43:56.566Z,19.85
2019-05-02T09:46:26.516Z,17.12
2019-05-02T09:48:57.132Z,17.95
2019-05-02T09:51:28.119Z,20.97
2019-05-02T09:54:02.584Z,19.50
2019-05-02T09:56:30.163Z,19.75
2019-05-02T09:59:06.314Z,18.27
2019-05-02T10:01:42.137Z,18.87
2019-05-02T10:04:11.976Z,20.23
2019-05-02T10:06:43.051Z,22.20
2019-05-02T10:09:13.112Z,20.10
2019-05-02T10:11:42.356Z,21.77
2019-05-02T10:14:13.149Z,21.62
2019-05-02T10:16:43.312Z,19.23
2019-05-02T10:19:13.683Z,21.60
2019-05-02T10:21:46.941Z,17.90
2019-05-02T10:24:15.360Z,17.60
2019-05-02T10:26:45.178Z,17.50
2019-05-02T10:29:15.211Z,20.43
2019-05-02T10:31:45.338Z,15.00
2019-05-02T10:34:17.676Z,19.37
2019-05-02T10:36:45.711Z,14.40
2019-05-02T10:39:16.041Z,14.13
2019-05-02T10:41:46.052Z,16.05
2019-05-02T10:44:15.787Z,15.53
2019-05-02T10:46:55.810Z,16.52
2019-05-02T10:49:50.104Z,16.90
2019-05-02T10:52:21.556Z,16.12
2019-05-02T10:54:52.834Z,14.55
2019-05-02T10:57:23.123Z,14.85
2019-05-02T10:59:55.785Z,13.15
2019-05-02T11:02:55.364Z,17.07
2019-05-02T11:05:26.750Z,12.58
2019-05-02T11:08:03.678Z,11.08
2019-05-02T11:10:29.135Z,12.78
2019-05-02T11:13:09.983Z,13.68
2019-05-02T11:16:03.759Z,13.10
2019-05-02T11:18:49.011Z,12.30
2019-05-02T11:21:18.925Z,12.20
2019-05-02T11:23:48.258Z,14.43
2019-05-02T11:26:23.222Z,12.33
2019-05-02T11:28:48.451Z,12.35
2019-05-02T11:31:17.776Z,13.08
2019-05-02T11:33:47.072Z,13.10
2019-05-02T11:36:16.159Z,11.85
2019-05-02T11:38:49.256Z,15.10
2019-05-02T11:41:16.142Z,13.85
2019-05-02T11:43:45.312Z,14.15
2019-05-02T11:46:14.512Z,13.65
2019-05-02T11:48:55.668Z,12.60
2019-05-02T11:51:16.456Z,11.22
2019-05-02T11:53:45.246Z,11.85
2019-05-02T11:56:15.771Z,13.65
2019-05-02T11:58:48.191Z,12.28
2019-05-02T12:01:19.731Z,21.93
2019-05-02T12:03:52.441Z,16.62
2019-05-02T12:06:23.146Z,15.65
2019-05-02T12:08:53.184Z,14.83
2019-05-02T12:11:23.157Z,18.00
2019-05-02T12:13:56.974Z,13.35
2019-05-02T12:16:24.638Z,14.00
2019-05-02T12:18:57.986Z,13.93
2019-05-02T12:21:26.047Z,12.25
2019-05-02T12:23:55.248Z,11.38
2019-05-02T12:26:24.425Z,12.23
2019-05-02T12:28:53.621Z,11.12
2019-05-02T12:31:32.897Z,15.60
2019-05-02T12:34:05.441Z,13.53
2019-05-02T12:36:34.632Z,16.57
2019-05-02T12:39:06.268Z,13.55
2019-05-02T12:41:42.245Z,11.25
2019-05-02T12:44:12.485Z,11.88
2019-05-02T12:46:46.717Z,13.88
2019-05-02T12:49:25.387Z,12.82
2019-05-02T12:51:52.494Z,11.80
2019-05-02T12:54:22.125Z,15.90
2019-05-02T12:56:52.811Z,14.43
2019-05-02T12:59:22.997Z,12.78
2019-05-02T13:01:53.054Z,14.07
2019-05-02T13:04:26.128Z,13.08
2019-05-02T13:06:56.752Z,14.58
2019-05-02T13:09:29.606Z,15.18
2019-05-02T13:12:14.146Z,14.60
2019-05-02T13:14:43.826Z,15.15
2019-05-02T13:17:13.573Z,17.17
2019-05-02T13:19:55.520Z,15.35
2019-05-02T13:22:52.668Z,11.45
2019-05-02T13:25:22.591Z,11.80
2019-05-02T13:27:52.248Z,16.02
2019-05-02T13:30:59.252Z,12.75
2019-05-02T13:33:44.074Z,13.45
2019-05-02T13:36:32.514Z,10.58
2019-05-02T13:39:01.820Z,11.68
2019-05-02T13:41:32.183Z,11.68
2019-05-02T13:44:02.180Z,9.98
2019-05-02T13:46:32.262Z,12.85
2019-05-02T13:49:02.124Z,8.83
2019-05-02T13:51:32.182Z,12.30
2019-05-02T13:54:02.394Z,9.50
2019-05-02T13:56:52.725Z,10.45
2019-05-02T13:59:22.432Z,11.00
2019-05-02T14:01:53.027Z,9.58
2019-05-02T14:04:23.269Z,10.03
2019-05-02T14:06:53.037Z,9.78
2019-05-02T14:09:40.191Z,14.13
2019-05-02T14:12:28.386Z,11.68
2019-05-02T14:14:57.536Z,9.50
2019-05-02T14:17:26.648Z,12.70
2019-05-02T14:20:07.850Z,10.08
2019-05-02T14:22:26.712Z,10.82
2019-05-02T14:24:55.977Z,11.48
2019-05-02T14:27:27.459Z,13.15
2019-05-02T14:29:56.653Z,14.60
2019-05-02T14:32:26.643Z,17.87
2019-05-02T14:35:18.755Z,13.05
2019-05-02T14:37:45.052Z,13.93
2019-05-02T14:40:26.959Z,13.90
2019-05-02T14:42:57.738Z,11.75
2019-05-02T14:45:31.012Z,9.15
2019-05-02T14:48:04.055Z,9.75
2019-05-02T14:50:28.420Z,9.63
2019-05-02T14:52:59.290Z,9.13
2019-05-02T14:55:29.287Z,9.88
2019-05-02T14:58:04.072Z,12.40
2019-05-02T15:00:38.870Z,12.05
2019-05-02T15:03:03.348Z,16.85
2019-05-02T15:05:32.733Z,9.60
2019-05-02T15:08:06.679Z,10.18
2019-05-02T15:10:36.226Z,8.98
2019-05-02T15:13:03.989Z,11.08
2019-05-02T15:15:40.478Z,13.95
2019-05-02T15:18:07.905Z,9.60
2019-05-02T15:20:38.888Z,11.10
2019-05-02T15:23:07.236Z,9.83
2019-05-02T15:25:42.258Z,8.95
2019-05-02T15:28:19.450Z,10.13
2019-05-02T15:31:04.359Z,9.70
2019-05-02T15:33:32.183Z,9.68
2019-05-02T15:36:07.457Z,9.68
2019-05-02T15:38:37.256Z,7.37
2019-05-02T15:41:09.524Z,7.42
2019-05-02T15:43:39.349Z,8.95
2019-05-02T15:46:15.681Z,9.38
2019-05-02T15:48:43.682Z,9.13
2019-05-02T15:51:12.825Z,6.00
2019-05-02T15:53:52.466Z,10.28
2019-05-02T15:56:21.620Z,7.47
2019-05-02T15:58:52.143Z,10.30
2019-05-02T16:01:46.016Z,8.05
2019-05-02T16:04:17.219Z,12.20
2019-05-02T16:06:44.599Z,7.65
2019-05-02T16:09:13.712Z,10.03
2019-05-02T16:11:43.492Z,8.38
2019-05-02T16:14:13.566Z,9.23
2019-05-02T16:16:45.250Z,7.72
2019-05-02T16:19:24.682Z,9.93
2019-05-02T16:21:54.487Z,8.18
2019-05-02T16:24:24.677Z,10.43
2019-05-02T16:26:57.132Z,8.80
2019-05-02T16:29:28.793Z,8.50
2019-05-02T16:32:15.132Z,11.30
2019-05-02T16:34:59.268Z,9.60
2019-05-02T16:37:29.109Z,9.15
2019-05-02T16:39:58.874Z,11.65
2019-05-02T16:42:29.008Z,10.30
2019-05-02T16:44:58.975Z,10.05
2019-05-02T16:47:28.831Z,8.60
2019-05-02T16:49:58.668Z,9.85
2019-05-02T16:52:28.441Z,9.55
2019-05-02T16:54:58.489Z,14.63
2019-05-02T16:57:28.338Z,12.70
2019-05-02T17:00:01.156Z,11.20
2019-05-02T17:02:29.687Z,10.82
2019-05-02T17:05:00.173Z,9.83
2019-05-02T17:07:53.012Z,10.85
2019-05-02T17:10:53.816Z,9.25
2019-05-02T17:13:22.748Z,9.68
2019-05-02T17:15:52.662Z,10.18
2019-05-02T17:18:22.932Z,13.28
2019-05-02T17:20:56.680Z,13.88
2019-05-02T17:23:24.353Z,11.40
2019-05-02T17:25:54.167Z,12.65
2019-05-02T17:28:24.018Z,12.05
2019-05-02T17:30:53.914Z,13.60
2019-05-02T17:33:23.769Z,12.35
2019-05-02T17:35:54.393Z,13.90
2019-05-02T17:38:29.084Z,11.70
2019-05-02T17:40:59.341Z,13.13
2019-05-02T17:43:27.187Z,14.18
2019-05-02T17:45:56.973Z,13.75
2019-05-02T17:48:26.715Z,13.75
2019-05-02T17:51:22.728Z,13.58
2019-05-02T17:53:52.628Z,12.75
2019-05-02T17:56:23.242Z,14.07
2019-05-02T17:58:58.195Z,12.70
2019-05-02T18:01:35.269Z,14.58
2019-05-02T18:04:06.791Z,10.68
2019-05-02T18:06:37.248Z,11.15
2019-05-02T18:09:08.977Z,11.90
2019-05-02T18:11:38.756Z,13.03
2019-05-02T18:14:18.637Z,12.18
2019-05-02T18:16:41.860Z,10.78
2019-05-02T18:19:11.306Z,10.90
2019-05-02T18:21:41.898Z,11.75
2019-05-02T18:24:12.590Z,10.98
2019-05-02T18:26:42.671Z,14.58
2019-05-02T18:29:15.274Z,10.32
2019-05-02T18:31:47.383Z,11.55
2019-05-02T18:34:23.707Z,10.93
2019-05-02T18:36:46.745Z,11.78
2019-05-02T18:39:16.631Z,13.43
2019-05-02T18:41:46.551Z,12.10
2019-05-02T18:44:17.359Z,10.30
2019-05-02T18:46:47.812Z,12.73
2019-05-02T18:49:21.949Z,11.85
2019-05-02T18:51:55.612Z,11.50
2019-05-02T18:54:21.703Z,12.35
2019-05-02T18:56:55.247Z,13.13
2019-05-02T18:59:27.015Z,12.93
2019-05-02T19:01:56.557Z,14.93
2019-05-02T19:04:34.877Z,11.80
2019-05-02T19:06:57.534Z,12.45
2019-05-02T19:09:30.036Z,13.35
2019-05-02T19:12:05.253Z,15.75
2019-05-02T19:14:30.011Z,15.28
2019-05-02T19:17:03.610Z,14.87
2019-05-02T19:19:32.959Z,15.53
2019-05-02T19:22:07.274Z,13.48
2019-05-02T19:24:36.482Z,12.45
2019-05-02T19:27:06.100Z,12.70
2019-05-02T19:29:35.800Z,13.10
2019-05-02T19:32:08.632Z,13.48
2019-05-02T19:34:38.454Z,12.70
2019-05-02T19:37:08.230Z,11.12
2019-05-02T19:39:39.084Z,11.88
2019-05-02T19:42:12.140Z,14.25
2019-05-02T19:44:42.066Z,15.70
2019-05-02T19:47:13.689Z,14.18
2019-05-02T19:49:47.202Z,15.05
2019-05-02T19:52:14.856Z,12.68
2019-05-02T19:54:44.599Z,16.75
2019-05-02T19:57:24.862Z,13.70
2019-05-02T19:59:48.946Z,15.60
2019-05-02T20:02:22.729Z,15.23
2019-05-02T20:04:52.454Z,15.35
2019-05-02T20:07:25.530Z,18.90
2019-05-02T20:09:55.272Z,15.08
2019-05-02T20:12:25.083Z,16.15
2019-05-02T20:14:54.879Z,17.05
2019-05-02T20:17:24.663Z,15.03
2019-05-02T20:19:57.707Z,16.30
2019-05-02T20:22:28.294Z,17.00
2019-05-02T20:25:01.221Z,17.48
2019-05-02T20:27:32.948Z,14.58
2019-05-02T20:30:04.145Z,15.48
2019-05-02T20:32:39.424Z,15.60
2019-05-02T20:35:09.180Z,15.90
2019-05-02T20:37:41.974Z,14.80
2019-05-02T20:40:28.387Z,16.32
2019-05-02T20:42:58.199Z,16.97
2019-05-02T20:45:28.043Z,15.65
2019-05-02T20:47:58.307Z,17.05
2019-05-02T20:50:28.052Z,16.25
2019-05-02T20:52:58.014Z,15.65
2019-05-02T20:55:27.714Z,15.68
2019-05-02T20:57:57.515Z,17.23
2019-05-02T21:00:29.270Z,16.23
2019-05-02T21:02:59.139Z,15.70
2019-05-02T21:05:34.951Z,19.35
2019-05-02T21:08:36.063Z,14.78
2019-05-02T21:11:05.938Z,17.25
2019-05-02T21:13:35.724Z,15.95
2019-05-02T21:16:05.908Z,17.23
2019-05-02T21:18:35.653Z,15.70
2019-05-02T21:21:05.572Z,16.80
2019-05-02T21:23:43.785Z,18.12
2019-05-02T21:26:06.950Z,19.07
2019-05-02T21:28:36.719Z,17.82
2019-05-02T21:31:08.211Z,18.48
2019-05-02T21:33:39.651Z,18.55
2019-05-02T21:36:11.793Z,17.60
2019-05-02T21:38:42.811Z,20.35
2019-05-02T21:41:12.826Z,18.55
2019-05-02T21:43:42.734Z,20.77
2019-05-02T21:46:12.434Z,20.15
2019-05-02T21:48:42.195Z,17.80
2019-05-02T21:51:42.945Z,19.12
2019-05-02T21:54:40.573Z,18.67
2019-05-02T21:57:13.881Z,20.00
2019-05-02T21:59:43.614Z,21.20
2019-05-02T22:02:13.964Z,18.67
2019-05-02T22:04:43.683Z,19.87
2019-05-02T22:07:13.535Z,21.27
2019-05-02T22:09:43.306Z,22.00
2019-05-02T22:12:13.087Z,22.30
2019-05-02T22:14:42.808Z,21.37
2019-05-02T22:17:12.768Z,23.00
2019-05-02T22:19:42.650Z,21.73
2019-05-02T22:22:12.438Z,21.65
2019-05-02T22:24:42.267Z,22.95
2019-05-02T22:27:12.435Z,22.95
2019-05-02T22:29:43.047Z,21.20
2019-05-02T22:32:12.907Z,21.30
2019-05-02T22:34:45.141Z,24.32
2019-05-02T22:37:15.562Z,23.90
2019-05-02T22:39:53.165Z,22.75
2019-05-02T22:42:23.196Z,22.45
2019-05-02T22:44:52.918Z,23.02
2019-05-02T22:47:22.818Z,25.15
2019-05-02T22:49:52.571Z,23.73
2019-05-02T22:52:22.278Z,25.75
2019-05-02T22:54:52.267Z,25.80
2019-05-02T22:57:22.664Z,23.90
2019-05-02T22:59:52.555Z,25.23
2019-05-02T23:02:22.325Z,26.55
2019-05-02T23:04:52.783Z,25.80
2019-05-02T23:07:22.707Z,24.65
2019-05-02T23:09:52.895Z,26.57
2019-05-02T23:12:25.050Z,26.70
2019-05-02T23:14:54.045Z,25.02
2019-05-02T23:17:23.848Z,24.92
2019-05-02T23:19:53.501Z,25.25
2019-05-02T23:22:23.215Z,25.72
2019-05-02T23:25:07.561Z,29.87
2019-05-02T23:27:44.443Z,24.15
2019-05-02T23:30:17.246Z,34.75
2019-05-02T23:32:46.949Z,28.73
2019-05-02T23:35:16.759Z,29.80
2019-05-02T23:37:46.480Z,30.02
2019-05-02T23:40:16.576Z,28.85
2019-05-02T23:42:46.312Z,32.78
2019-05-02T23:45:16.086Z,30.10
2019-05-02T23:47:45.792Z,29.75
2019-05-02T23:50:15.486Z,29.80
2019-05-02T23:52:45.198Z,30.88
2019-05-02T23:55:14.977Z,29.23
2019-05-02T23:57:44.674Z,35.73
